Terminal Aerodrome Forecast
Issued by NWS

Home | Current Version | Previous Version | Text Only | Print | Product List | Glossary On
Versions: 1 2 3 4 5 6 7 8 9 10 11 12 13 14 15 16 17 18 19 20 21 22 23
000
FTUS46 KSEW 270900 AAB
TAFBLI
TAF AMD
KBLI 270910Z 2709/2806 VRB03KT 1/2SM FG OVC001
      TEMPO 2709/2712 3SM BR OVC002
     FM271700 17005KT P6SM OVC025
     FM272200 18006KT P6SM OVC015=

USA.gov is the U.S. government's official web portal to all federal, state and local government web resources and services.